FW1811 Weather Reports


Display with metric or nautical units.
time (UTC)temp
F
wind
direction
speed
MPH
gust
MPH
rain 1hr
in
rain 24hr
in
rain mn
in
humidity
%
barometer
mb
20190420220734 72 138 1.0 2.0 0.00 1.51 0.73 91 1010.7
20190420215738 72 138 0.0 1.0 0.00 1.51 0.73 91 1010.7
20190420214734 71 138 0.0 1.0 0.00 1.51 0.73 91 1010.5
20190420213738 72 0.0 0.0 0.01 1.51 0.73 91 1010.6
20190420212734 71 138 0.0 1.0 0.01 1.51 0.73 91 1010.4
20190420211737 71 96 1.0 2.0 0.01 1.51 0.73 91 1010.5
20190420210733 71 106 2.0 4.0 0.01 1.51 0.73 91 1010.6
20190420205738 71 87 2.0 4.0 0.01 1.51 0.73 91 1010.9
20190420204733 71 114 2.0 4.0 0.01 1.51 0.73 91 1010.7
20190420203737 71 125 2.0 3.0 0.00 1.50 0.72 91 1011.1
20190420202734 71 119 2.0 3.0 0.01 1.50 0.72 91 1011.1
20190420201738 71 123 2.0 4.0 0.03 1.50 0.72 91 1010.9
20190420200733 71 158 2.0 4.0 0.03 1.50 0.72 91 1010.5
20190420195738 71 178 1.0 3.0 0.03 1.50 0.72 91 1010.6
20190420194733 71 117 3.0 5.0 0.05 1.50 0.72 91 1010.4
20190420193738 71 97 2.0 3.0 0.09 1.50 0.72 91 1010.6
20190420192733 71 93 1.0 2.0 0.13 1.49 0.71 91 1010.6
20190420191738 71 99 1.0 3.0 0.12 1.47 0.69 91 1010.4
20190420190734 72 205 0.0 1.0 0.18 1.47 0.69 91 1010.7
20190420185737 71 215 1.0 2.0 0.61 1.46 0.68 90 1010.5
20190420184733 71 222 3.0 6.0 0.66 1.44 0.66 90 1010.7
20190420183738 71 300 4.0 5.0 0.62 1.40 0.62 91 1010.7
20190420182733 71 230 4.0 8.0 0.57 1.36 0.57 91 1010.7
20190420181739 71 239 4.0 6.0 0.56 1.34 0.56 92 1011.1
20190420180734 71 230 4.0 9.0 0.50 1.28 0.50 91 1011.1
20190420175737 75 255 5.0 10.0 0.07 0.85 0.07 90 1011.5
20190420174733 75 180 0.0 1.0 0.00 0.78 0.00 90 1010.4
20190420173800 74 187 0.0 1.0 0.00 0.78 0.00 90 1010.1
20190420172734 75 187 0.0 1.0 0.00 0.78 0.00 90 1010.4
20190420171738 74 195 0.0 1.0 0.00 0.78 0.00 90 1010.7
20190420170733 74 207 0.0 1.0 0.00 0.78 0.00 89 1010.4
20190420165738 74 186 1.0 2.0 0.00 0.78 0.00 90 1010.5
20190420164733 74 192 0.0 1.0 0.00 0.78 0.00 90 1010.4
20190420163738 74 175 0.0 1.0 0.00 0.78 0.00 90 1010.4
20190420162734 74 170 0.0 2.0 0.01 0.78 0.00 90 1010.4
20190420161738 74 161 1.0 2.0 0.01 0.78 0.00 90 1010.4
20190420160733 74 119 1.0 2.0 0.01 0.78 0.00 90 1010.7
20190420155738 74 167 1.0 2.0 0.01 0.78 0.78 90 1010.7
20190420154733 74 183 1.0 3.0 0.01 0.78 0.78 90 1010.6
20190420153738 74 169 1.0 3.0 0.01 0.79 0.78 90 1010.9
20190420152733 74 171 2.0 5.0 0.00 0.78 0.77 90 1011.4
20190420151738 74 173 1.0 2.0 0.00 0.78 0.77 90 1011.4
20190420150733 74 174 1.0 4.0 0.00 0.79 0.77 90 1011.4
20190420145738 74 163 2.0 4.0 0.01 0.79 0.77 90 1011.6
20190420144734 74 167 1.0 3.0 0.01 0.80 0.77 90 1011.4
20190420143738 74 159 1.0 3.0 0.01 0.80 0.77 91 1011.4
20190420142733 74 122 2.0 4.0 0.14 0.80 0.77 91 1011.4
20190420141738 74 119 2.0 4.0 0.14 0.80 0.77 91 1011.7
20190420140733 74 56 2.0 4.0 0.19 0.81 0.77 91 1011.7
20190420135738 74 72 4.0 6.0 0.29 0.80 0.76 91 1011.7
20190420134733 74 26 4.0 8.0 0.31 0.80 0.76 91 1011.9
20190420133739 74 34 3.0 5.0 0.32 0.80 0.76 91 1011.7
20190420132733 74 48 2.0 3.0 0.33 0.67 0.63 91 1011.6
20190420131738 74 69 2.0 5.0 0.37 0.67 0.63 91 1011.4
20190420130733 74 355 5.0 6.0 0.34 0.62 0.57 91 1011.4
20190420125739 74 10 4.0 6.0 0.24 0.51 0.47 90 1011.3
20190420124733 74 8 2.0 6.0 0.23 0.49 0.45 90 1011.2
20190420123735 75 353 4.0 8.0 0.24 0.49 0.44 90 1011.3
20190420122733 75 15 3.0 6.0 0.22 0.35 0.30 89 1011.3
20190420121734 75 334 2.0 4.0 0.19 0.31 0.26 89 1010.6
20190420120733 75 333 8.0 12.0 0.17 0.29 0.24 89 1010.4
20190420115733 76 341 4.0 6.0 0.15 0.27 0.22 89 1009.9
20190420114733 76 328 3.0 5.0 0.15 0.27 0.22 89 1009.6
20190420113733 76 353 5.0 6.0 0.13 0.25 0.20 88 1009.4
20190420112733 77 300 2.0 4.0 0.00 0.13 0.08 87 1009.6
20190420111733 77 29 0.0 2.0 0.01 0.12 0.07 87 1009.6
20190420110733 76 250 0.0 1.0 0.01 0.12 0.07 87 1009.2
20190420105733 77 303 1.0 1.0 0.01 0.12 0.07 86 1009.2
20190420104733 77 24 2.0 4.0 0.01 0.12 0.07 86 1009.2
20190420103733 77 323 1.0 2.0 0.01 0.12 0.07 85 1009.2
20190420102733 78 352 2.0 3.0 0.01 0.12 0.07 83 1009.0
20190420101733 78 330 2.0 3.0 0.00 0.11 0.06 81 1008.9
20190420100733 79 311 1.0 3.0 0.00 0.11 0.06 81 1009.0
20190420095733 79 301 2.0 3.0 0.00 0.11 0.06 80 1008.8
20190420094733 79 285 1.0 2.0 0.00 0.11 0.06 79 1009.0
20190420093733 79 294 2.0 5.0 0.00 0.11 0.06 79 1008.8
20190420092733 79 13 1.0 3.0 0.00 0.11 0.06 79 1008.7
20190420091740 79 286 2.0 3.0 0.00 0.11 0.06 79 1008.8
20190420090733 79 356 3.0 5.0 0.00 0.11 0.06 79 1008.6
20190420085733 80 320 3.0 5.0 0.00 0.11 0.06 78 1008.7
20190420084733 80 30 1.0 3.0 0.00 0.11 0.06 78 1008.7
20190420083733 80 272 1.0 2.0 0.00 0.12 0.06 78 1008.7
20190420082733 81 318 2.0 4.0 0.00 0.12 0.06 77 1008.7
20190420081733 80 295 1.0 2.0 0.00 0.12 0.06 76 1008.7
20190420080733 80 8 3.0 4.0 0.00 0.12 0.06 75 1008.7
20190420075733 80 354 3.0 5.0 0.00 0.13 0.06 74 1008.7
20190420074733 80 350 2.0 4.0 0.00 0.15 0.06 73 1009.0
20190420073733 80 304 1.0 3.0 0.00 0.18 0.06 71 1009.0
20190420072733 80 6 4.0 6.0 0.00 0.21 0.06 72 1009.4
20190420071733 80 296 3.0 5.0 0.00 0.45 0.06 71 1009.2
20190420070735 80 312 3.0 5.0 0.00 0.69 0.06 72 1009.4
20190420065734 80 335 4.0 6.0 0.00 0.69 0.06 71 1009.4
20190420064733 81 326 2.0 4.0 0.00 0.69 0.06 71 1009.7
20190420063733 84 56 1.0 2.0 0.00 0.69 0.06 62 1009.4
20190420062733 84 325 1.0 2.0 0.00 0.69 0.06 62 1009.5
20190420061733 84 113 1.0 2.0 0.00 0.69 0.06 61 1009.5
20190420060733 84 114 0.0 1.0 0.00 0.69 0.06 61 1009.7
20190420055733 84 106 2.0 3.0 0.00 0.69 0.06 60 1009.7
20190420054733 85 140 0.0 2.0 0.00 0.69 0.06 59 1010.3
20190420053733 85 121 1.0 4.0 0.00 0.69 0.06 57 1010.1
20190420052733 86 26 2.0 3.0 0.00 0.69 0.06 57 1010.3
20190420051734 86 89 1.0 4.0 0.00 0.69 0.06 57 1010.4
20190420050733 85 180 0.0 1.0 0.00 0.69 0.06 58 1010.3
20190420045733 86 171 1.0 2.0 0.00 0.69 0.06 57 1010.6
20190420044733 86 88 0.0 2.0 0.00 0.69 0.06 58 1010.7
20190420043733 84 63 1.0 2.0 0.00 0.69 0.06 62 1010.7
20190420042734 84 9 1.0 2.0 0.00 0.69 0.06 64 1010.9
20190420041734 84 214 0.0 1.0 0.00 0.69 0.06 65 1010.7
20190420040733 83 64 1.0 2.0 0.00 0.73 0.06 69 1010.9
20190420035733 81 108 1.0 2.0 0.00 0.78 0.06 71 1011.3
20190420034733 80 0.0 0.0 0.00 0.78 0.06 74 1011.3
20190420033733 80 21 1.0 2.0 0.00 0.78 0.06 76 1011.4
20190420032734 80 140 0.0 1.0 0.00 0.78 0.06 73 1011.6
20190420031733 78 222 0.0 1.0 0.00 0.78 0.06 75 1011.4
20190420030734 78 257 0.0 1.0 0.03 0.78 0.06 80 1011.7
20190420025734 77 333 2.0 3.0 0.05 0.78 0.06 81 1011.7
20190420024733 77 3 1.0 2.0 0.06 0.78 0.06 80 1011.6
20190420023733 77 0.0 0.0 0.06 0.78 0.06 79 1011.7
20190420022733 77 186 0.0 1.0 0.06 0.78 0.06 80 1011.7
20190420021734 78 247 1.0 2.0 0.05 0.77 0.05 79 1012.3
20190420020733 80 251 1.0 2.0 0.03 0.75 0.03 74 1012.1
20190420015734 82 218 0.0 1.0 0.01 0.73 0.01 64 1012.1
20190420014733 82 204 0.0 1.0 0.00 0.72 0.00 65 1012.1
20190420013734 82 146 1.0 3.0 0.00 0.72 0.00 64 1012.2
20190420012734 82 135 1.0 3.0 0.00 0.72 0.00 64 1012.1
20190420011734 82 162 0.0 2.0 0.00 0.72 0.00 65 1012.1
20190420010733 80 132 2.0 5.0 0.00 0.72 0.00 68 1012.1
20190420005733 80 199 1.0 2.0 0.00 0.72 0.00 69 1012.1
20190420004733 78 142 1.0 2.0 0.00 0.72 0.00 73 1012.1
20190420003733 78 127 1.0 3.0 0.00 0.72 0.00 73 1012.2
20190420002733 77 132 1.0 3.0 0.00 0.72 0.00 75 1012.2
20190420001733 76 152 2.0 4.0 0.00 0.72 0.00 77 1012.1
20190420000738 75 142 1.0 2.0 0.00 0.72 0.00 78 1012.1
20190419235734 75 116 2.0 3.0 0.00 0.72 0.00 80 1012.1
20190419234733 75 102 2.0 3.0 0.00 0.72 0.00 81 1012.1
20190419233734 74 143 1.0 2.0 0.00 0.72 0.00 82 1012.1
20190419232733 74 122 1.0 2.0 0.00 0.72 0.00 82 1012.1
20190419231734 73 142 1.0 3.0 0.00 0.72 0.00 82 1012.0
20190419230733 73 178 0.0 2.0 0.00 0.73 0.00 84 1012.1
20190419225734 73 144 1.0 2.0 0.00 0.74 0.00 85 1011.9
20190419224733 73 138 1.0 2.0 0.00 0.76 0.00 85 1012.0
20190419223734 73 156 0.0 1.0 0.00 0.79 0.00 85 1011.7
20190419222733 72 180 0.0 1.0 0.00 0.81 0.00 86 1012.1
20190419221734 72 177 0.0 1.0 0.00 0.83 0.00 86 1012.0